Flight Track Log - Related Links

Times and Time Zones

All times are in EST time to prevent confusion due to time zone crossing. See the CAL221 flight status page for this flight to view local times or setup timezone preferences in your user account.

Time Position Orientation Groundspeed Altitude Reporting Facility
EST Latitude Longitude Course Direction KTS MPH feet Rate Location/Type
Sat 12:36:00 AM 35.4235 139.4927 241° Southwest  Level Estimated
Sat 12:37:00 AM 35.3805 139.3972 241° Southwest  Level Estimated
Sat 12:38:00 AM 35.3374 139.3019 241° Southwest  Level Estimated
Sat 12:39:00 AM 35.2942 139.2066 241° Southwest  Level Estimated
Sat 12:39:40 AM 35.2696 139.6891 241° Southwest 270 311 16,600  Level FlightAware ADS-B
Sat 12:40:00 AM 35.2509 139.1115 241° Southwest  Level Estimated
Sat 12:40:26 AM 35.2422 139.6310 240° Southwest 261 300 18,700  Level FlightAware ADS-B
Sat 12:40:56 AM 35.2355 139.5882 259° West 261 300 20,000 2,560 Climbing FlightAware ADS-B
Sat 12:41:41 AM 35.2249 139.5248 258° West 265 305 21,900 2,360 Climbing FlightAware ADS-B
Sat 12:42:25 AM 35.2139 139.4599 258° West 270 311 23,500 2,080 Climbing FlightAware ADS-B
Sat 12:42:56 AM 35.2054 139.4112 258° West 274 315 24,500 1,967 Climbing FlightAware ADS-B
Sat 12:43:26 AM 35.1974 139.3654 258° West 277 319 25,500 2,000 Climbing FlightAware ADS-B
Sat 12:43:56 AM 35.1893 139.3186 258° West 279 321 26,500 1,500 Climbing FlightAware ADS-B
Sat 12:44:26 AM 35.1822 139.2778 258° West 295 339 27,000 1,370 Climbing FlightAware ADS-B
Sat 12:45:28 AM 35.1647 139.1775 258° West 313 360 28,600 1,548 Climbing FlightAware ADS-B
Sat 12:47:00 AM 35.0989 139.0314 241° Southwest  Level Estimated
Sat 12:48:00 AM 35.0559 138.9363 241° Southwest  Level Estimated
Sat 12:49:00 AM 35.0129 138.8413 241° Southwest  Level Estimated
Sat 12:50:00 AM 34.9697 138.7464 241° Southwest  Level Estimated
Sat 12:51:00 AM 34.9265 138.6516 241° Southwest  Level Estimated
Sat 12:52:00 AM 34.8832 138.5569 241° Southwest  Level Estimated
Sat 12:53:00 AM 34.8399 138.4622 241° Southwest  Level Estimated
Sat 12:54:00 AM 34.7964 138.3677 241° Southwest  Level Estimated
Sat 12:55:00 AM 34.7529 138.2733 241° Southwest  Level Estimated
Sat 12:56:00 AM 34.7093 138.1790 241° Southwest  Level Estimated
Sat 12:57:00 AM 34.6657 138.0847 241° Southwest  Level Estimated
Sat 12:58:00 AM 34.6219 137.9906 241° Southwest  Level Estimated
Sat 12:59:00 AM 34.5781 137.8966 241° Southwest  Level Estimated
Sat 01:00:00 AM 34.5343 137.8027 240° Southwest  Level Estimated
Sat 01:01:00 AM 34.4903 137.7089 240° Southwest  Level Estimated
Sat 01:02:00 AM 34.4463 137.6151 240° Southwest  Level Estimated
Sat 01:03:00 AM 34.4022 137.5215 240° Southwest  Level Estimated
Sat 01:04:00 AM 34.3581 137.4280 240° Southwest  Level Estimated
Sat 01:05:00 AM 34.3138 137.3345 240° Southwest  Level Estimated
Sat 01:06:00 AM 34.2695 137.2412 240° Southwest  Level Estimated
Sat 01:07:00 AM 34.2252 137.1480 240° Southwest  Level Estimated
Sat 01:08:00 AM 34.1807 137.0549 240° Southwest  Level Estimated
Sat 01:09:00 AM 34.1362 136.9618 240° Southwest  Level Estimated
Sat 01:10:00 AM 34.0916 136.8689 240° Southwest  Level Estimated
Sat 01:11:00 AM 34.0470 136.7760 240° Southwest  Level Estimated
Sat 01:12:00 AM 34.0023 136.6833 240° Southwest  Level Estimated
Sat 01:13:00 AM 33.9575 136.5907 240° Southwest  Level Estimated
Sat 01:14:00 AM 33.9126 136.4981 240° Southwest  Level Estimated
Sat 01:15:00 AM 33.8677 136.4057 240° Southwest  Level Estimated
Sat 01:16:00 AM 33.8227 136.3133 240° Southwest  Level Estimated
Sat 01:17:00 AM 33.7776 136.2211 240° Southwest  Level Estimated
Sat 01:18:00 AM 33.7325 136.1289 240° Southwest  Level Estimated
Sat 01:19:00 AM 33.6873 136.0368 239° Southwest  Level Estimated
Sat 01:20:00 AM 33.6420 135.9449 239° Southwest  Level Estimated
Sat 01:21:00 AM 33.5967 135.8530 239° Southwest  Level Estimated
Sat 01:22:00 AM 33.5513 135.7612 239° Southwest  Level Estimated
Sat 01:23:00 AM 33.5058 135.6696 239° Southwest  Level Estimated
Sat 01:24:00 AM 33.4602 135.5780 239° Southwest  Level Estimated
Sat 01:25:00 AM 33.4146 135.4865 239° Southwest  Level Estimated
Sat 01:26:00 AM 33.3689 135.3951 239° Southwest  Level Estimated
Sat 01:27:00 AM 33.3232 135.3038 239° Southwest  Level Estimated
Sat 01:28:00 AM 33.2774 135.2126 239° Southwest  Level Estimated
Sat 01:29:00 AM 33.2315 135.1215 239° Southwest  Level Estimated
Sat 01:30:00 AM 33.1856 135.0305 239° Southwest  Level Estimated
Sat 01:31:00 AM 33.1396 134.9396 239° Southwest  Level Estimated
Sat 01:32:00 AM 33.0935 134.8488 239° Southwest  Level Estimated
Sat 01:33:00 AM 33.0473 134.7581 239° Southwest  Level Estimated
Sat 01:34:00 AM 33.0011 134.6675 239° Southwest  Level Estimated
Sat 01:35:00 AM 32.9549 134.5769 239° Southwest  Level Estimated
Sat 01:36:00 AM 32.9085 134.4865 239° Southwest  Level Estimated
Sat 01:37:00 AM 32.8621 134.3962 239° Southwest  Level Estimated
Sat 01:38:00 AM 32.8157 134.3059 239° Southwest  Level Estimated
Sat 01:39:00 AM 32.7691 134.2158 238° Southwest  Level Estimated
Sat 01:40:00 AM 32.7225 134.1257 238° Southwest  Level Estimated
Sat 01:41:00 AM 32.6759 134.0358 238° Southwest  Level Estimated
Sat 01:42:00 AM 32.6291 133.9459 238° Southwest  Level Estimated
Sat 01:43:00 AM 32.5823 133.8561 238° Southwest  Level Estimated
Sat 01:44:00 AM 32.5355 133.7664 238° Southwest  Level Estimated
Sat 01:45:00 AM 32.4886 133.6769 238° Southwest  Level Estimated
Sat 01:46:00 AM 32.4416 133.5874 238° Southwest  Level Estimated
Sat 01:47:00 AM 32.3946 133.4980 238° Southwest  Level Estimated
Sat 01:48:00 AM 32.3474 133.4087 238° Southwest  Level Estimated
Sat 01:49:00 AM 32.3003 133.3195 238° Southwest  Level Estimated
Sat 01:50:00 AM 32.2530 133.2303 238° Southwest  Level Estimated
Sat 01:51:00 AM 32.2057 133.1413 238° Southwest  Level Estimated
Sat 01:52:00 AM 32.1584 133.0524 238° Southwest  Level Estimated
Sat 01:53:00 AM 32.1110 132.9635 238° Southwest  Level Estimated
Sat 01:54:00 AM 32.0635 132.8748 238° Southwest  Level Estimated
Sat 01:55:00 AM 32.0159 132.7861 238° Southwest  Level Estimated
Sat 01:56:00 AM 31.9683 132.6976 238° Southwest  Level Estimated
Sat 01:57:00 AM 31.9207 132.6091 238° Southwest  Level Estimated
Sat 01:58:00 AM 31.8729 132.5207 238° Southwest  Level Estimated
Sat 01:59:00 AM 31.8252 132.4324 238° Southwest  Level Estimated
Sat 02:00:00 AM 31.7773 132.3442 237° Southwest  Level Estimated
Sat 02:01:00 AM 31.7294 132.2561 237° Southwest  Level Estimated
Sat 02:02:00 AM 31.6814 132.1681 237° Southwest  Level Estimated
Sat 02:03:00 AM 31.6334 132.0802 237° Southwest  Level Estimated
Sat 02:04:00 AM 31.5853 131.9924 237° Southwest  Level Estimated
Sat 02:05:00 AM 31.5372 131.9046 237° Southwest  Level Estimated
Sat 02:06:00 AM 31.4890 131.8170 237° Southwest  Level Estimated
Sat 02:07:00 AM 31.4407 131.7294 237° Southwest  Level Estimated
Sat 02:08:00 AM 31.3923 131.6419 237° Southwest  Level Estimated
Sat 02:09:00 AM 31.3440 131.5546 237° Southwest  Level Estimated
Sat 02:10:00 AM 31.2955 131.4673 237° Southwest  Level Estimated
Sat 02:11:00 AM 31.2470 131.3801 237° Southwest  Level Estimated
Sat 02:12:00 AM 31.1984 131.2930 237° Southwest  Level Estimated
Sat 02:13:00 AM 31.1498 131.2059 237° Southwest  Level Estimated
Sat 02:14:00 AM 31.1011 131.1190 237° Southwest  Level Estimated
Sat 02:15:00 AM 31.0524 131.0322 237° Southwest  Level Estimated
Sat 02:16:00 AM 31.0036 130.9454 237° Southwest  Level Estimated
Sat 02:17:00 AM 30.9547 130.8587 237° Southwest  Level Estimated
Sat 02:18:00 AM 30.9058 130.7722 237° Southwest  Level Estimated
Sat 02:19:00 AM 30.8568 130.6857 237° Southwest  Level Estimated
Sat 02:20:00 AM 30.8078 130.5993 237° Southwest  Level Estimated
Sat 02:21:00 AM 30.7587 130.5130 237° Southwest  Level Estimated
Sat 02:22:00 AM 30.7096 130.4267 236° Southwest  Level Estimated
Sat 02:23:00 AM 30.6604 130.3406 236° Southwest  Level Estimated
Sat 02:24:00 AM 30.6111 130.2545 236° Southwest  Level Estimated
Sat 02:25:00 AM 30.5618 130.1686 236° Southwest  Level Estimated
Sat 02:26:00 AM 30.5124 130.0827 236° Southwest  Level Estimated
Sat 02:27:00 AM 30.4630 129.9969 236° Southwest  Level Estimated
Sat 02:28:00 AM 30.4135 129.9112 236° Southwest  Level Estimated
Sat 02:29:00 AM 30.3640 129.8256 236° Southwest  Level Estimated
Sat 02:30:00 AM 30.3144 129.7401 236° Southwest  Level Estimated
Sat 02:31:00 AM 30.2647 129.6546 236° Southwest  Level Estimated
Sat 02:32:00 AM 30.2150 129.5693 236° Southwest  Level Estimated
Sat 02:33:00 AM 30.1653 129.4840 236° Southwest  Level Estimated
Sat 02:34:00 AM 30.1154 129.3988 236° Southwest  Level Estimated
Sat 02:35:00 AM 30.0656 129.3137 236° Southwest  Level Estimated
Sat 02:36:00 AM 30.0156 129.2287 236° Southwest  Level Estimated
Sat 02:37:00 AM 29.9657 129.1438 236° Southwest  Level Estimated
Sat 02:38:00 AM 29.9156 129.0589 236° Southwest  Level Estimated
Sat 02:39:00 AM 29.8655 128.9742 236° Southwest  Level Estimated
Sat 02:40:00 AM 29.8154 128.8895 236° Southwest  Level Estimated
Sat 02:41:00 AM 29.7652 128.8049 236° Southwest  Level Estimated
Sat 02:42:00 AM 29.7149 128.7204 236° Southwest  Level Estimated
Sat 02:43:00 AM 29.6646 128.6360 236° Southwest  Level Estimated
Sat 02:44:00 AM 29.6143 128.5517 236° Southwest  Level Estimated
Sat 02:45:00 AM 29.5639 128.4675 235° Southwest  Level Estimated
Sat 02:46:00 AM 29.5134 128.3833 235° Southwest  Level Estimated
Sat 02:47:00 AM 29.4629 128.2992 235° Southwest  Level Estimated
Sat 02:48:00 AM 29.4123 128.2152 235° Southwest  Level Estimated
Sat 02:49:00 AM 29.3617 128.1313 235° Southwest  Level Estimated
Sat 02:50:00 AM 29.3110 128.0475 235° Southwest  Level Estimated
Sat 02:51:00 AM 29.2603 127.9638 235° Southwest  Level Estimated
Sat 02:52:00 AM 29.2095 127.8801 235° Southwest  Level Estimated
Sat 02:53:00 AM 29.1587 127.7965 235° Southwest  Level Estimated
Sat 02:54:00 AM 29.1078 127.7130 235° Southwest  Level Estimated
Sat 02:55:00 AM 29.0569 127.6296 235° Southwest  Level Estimated
Sat 02:56:00 AM 29.0059 127.5463 235° Southwest  Level Estimated
Sat 02:57:00 AM 28.9548 127.4630 235° Southwest  Level Estimated
Sat 02:58:00 AM 28.9037 127.3799 235° Southwest  Level Estimated
Sat 02:59:00 AM 28.8526 127.2968 235° Southwest  Level Estimated
Sat 03:00:00 AM 28.8014 127.2138 235° Southwest  Level Estimated
Sat 03:01:00 AM 28.7502 127.1309 235° Southwest  Level Estimated
Sat 03:02:00 AM 28.6989 127.0480 235° Southwest  Level Estimated
Sat 03:03:00 AM 28.6475 126.9652 235° Southwest  Level Estimated
Sat 03:04:00 AM 28.5961 126.8826 235° Southwest  Level Estimated
Sat 03:05:00 AM 28.5447 126.8000 235° Southwest  Level Estimated
Sat 03:06:00 AM 28.4932 126.7175 235° Southwest  Level Estimated
Sat 03:07:00 AM 28.4417 126.6350 235° Southwest  Level Estimated
Sat 03:08:00 AM 28.3901 126.5527 235° Southwest  Level Estimated
Sat 03:09:00 AM 28.3384 126.4704 235° Southwest  Level Estimated
Sat 03:10:00 AM 28.2868 126.3882 234° Southwest  Level Estimated
Sat 03:11:00 AM 28.2350 126.3061 234° Southwest  Level Estimated
Sat 03:12:00 AM 28.1832 126.2241 234° Southwest  Level Estimated
Sat 03:13:00 AM 28.1314 126.1421 234° Southwest  Level Estimated
Sat 03:14:00 AM 28.0795 126.0602 234° Southwest  Level Estimated
Sat 03:15:00 AM 28.0276 125.9784 234° Southwest  Level Estimated
Sat 03:16:00 AM 27.9756 125.8967 234° Southwest  Level Estimated
Sat 03:17:00 AM 27.9235 125.8151 234° Southwest  Level Estimated
Sat 03:18:00 AM 27.8715 125.7335 234° Southwest  Level Estimated
Sat 03:19:00 AM 27.8193 125.6520 234° Southwest  Level Estimated
Sat 03:20:00 AM 27.7672 125.5706 234° Southwest  Level Estimated
Sat 03:21:00 AM 27.7149 125.4893 234° Southwest  Level Estimated
Sat 03:22:00 AM 27.6627 125.4081 234° Southwest  Level Estimated
Sat 03:23:00 AM 27.6103 125.3269 234° Southwest  Level Estimated
Sat 03:24:00 AM 27.5580 125.2458 234° Southwest  Level Estimated
Sat 03:25:00 AM 27.5056 125.1648 234° Southwest  Level Estimated
Sat 03:26:00 AM 27.4531 125.0838 234° Southwest  Level Estimated
Sat 03:27:00 AM 27.4006 125.0030 234° Southwest  Level Estimated
Sat 03:28:00 AM 27.3480 124.9222 234° Southwest  Level Estimated
Sat 03:29:00 AM 27.2955 124.8415 234° Southwest  Level Estimated
Sat 03:30:00 AM 27.2428 124.7608 234° Southwest  Level Estimated
Sat 03:31:00 AM 27.1901 124.6803 234° Southwest  Level Estimated
Sat 03:32:00 AM 27.1374 124.5998 234° Southwest  Level Estimated
Sat 03:33:00 AM 27.0846 124.5194 234° Southwest  Level Estimated
Sat 03:34:00 AM 27.0318 124.4391 234° Southwest  Level Estimated
Sat 03:35:00 AM 26.9789 124.3588 234° Southwest  Level Estimated
Sat 03:36:00 AM 26.9260 124.2786 233° Southwest  Level Estimated
Sat 03:37:00 AM 26.8730 124.1985 233° Southwest  Level Estimated
Sat 03:38:00 AM 26.8200 124.1185 233° Southwest  Level Estimated
Sat 03:39:00 AM 26.7669 124.0386 233° Southwest  Level Estimated
Sat 03:40:00 AM 26.7138 123.9587 233° Southwest  Level Estimated
Sat 03:41:00 AM 26.6607 123.8789 233° Southwest  Level Estimated
Sat 03:42:00 AM 26.6075 123.7992 233° Southwest  Level Estimated
Sat 03:43:00 AM 26.5543 123.7195 233° Southwest  Level Estimated
Sat 03:44:00 AM 26.5010 123.6399 233° Southwest  Level Estimated
Sat 03:45:00 AM 26.4477 123.5604 233° Southwest  Level Estimated
Sat 03:46:00 AM 26.3943 123.4810 233° Southwest  Level Estimated
Sat 03:47:00 AM 26.3409 123.4016 233° Southwest  Level Estimated
Sat 03:48:00 AM 26.2874 123.3223 233° Southwest  Level Estimated
Sat 03:49:00 AM 26.2339 123.2431 233° Southwest  Level Estimated
Sat 03:50:00 AM 26.1804 123.1640 233° Southwest  Level Estimated
Sat 03:51:00 AM 26.1268 123.0849 233° Southwest  Level Estimated
Sat 03:52:00 AM 26.0732 123.0059 233° Southwest  Level Estimated
Sat 03:53:00 AM 26.0195 122.9270 233° Southwest  Level Estimated
Sat 03:54:00 AM 25.9658 122.8482 233° Southwest  Level Estimated
Sat 03:55:00 AM 25.9120 122.7694 233° Southwest  Level Estimated
Sat 03:56:00 AM 25.8582 122.6907 233° Southwest  Level Estimated
Sat 03:57:00 AM 25.8044 122.6120 233° Southwest  Level Estimated
Sat 03:58:00 AM 25.7505 122.5335 233° Southwest  Level Estimated
Sat 03:59:00 AM 25.6966 122.4550 233° Southwest  Level Estimated

Login

Don't have an account? Register now (free) for customized features, flight alerts, and more!